Time;durP1;ratioP1;P1;durP2;ratioP2;P2;SDS_P1;SDS_P2;PMS_P1;PMS_P2;Temp;Humidity;BMP_temperature;BMP_pressure;BME280_temperature;BME280_humidity;BME280_pressure;Samples;Min_cycle;Max_cycle;Signal;HPM_P1;HPM_P2
2023/03/17 00:02:05;;;;;;;;;;;;;;;-3.05;100.00;102346.22;5135265;27;20273;-71
2023/03/17 00:04:30;;;;;;;;;;;;;;;-3.09;100.00;102349.78;5136796;27;20009;-70
2023/03/17 00:06:56;;;;;;;;;;;;;;;-3.09;100.00;102355.00;5136517;27;20354;-69
2023/03/17 00:09:24;;;;;;;;;;;;;;;-3.10;100.00;102368.06;5136389;27;19958;-70
2023/03/17 00:11:50;;;;;;;;;;;;;;;-3.10;100.00;102365.47;5136569;27;19969;-71
2023/03/17 00:14:15;;;;;;;;;;;;;;;-3.12;100.00;102363.75;5136448;27;19912;-70
2023/03/17 00:16:42;;;;;;;;;;;;;;;-3.11;100.00;102372.44;5136483;27;19911;-71
2023/03/17 00:19:31;;;;;;;;;;;;;;;-3.09;100.00;102370.66;5136659;27;19932;-70
2023/03/17 00:21:57;;;;;;;;;;;;;;;-3.13;100.00;102371.63;5125043;27;20014;-70
2023/03/17 00:24:23;;;;;;;;;;;;;;;-3.17;100.00;102375.19;5136521;27;19956;-69
2023/03/17 00:26:48;;;;;;;;;;;;;;;-3.21;100.00;102376.97;5137303;27;20010;-70
2023/03/17 00:29:15;;;;;;;;;;;;;;;-3.24;100.00;102373.59;5137791;27;19941;-70
2023/03/17 00:31:41;;;;;;;;;;;;;;;-3.25;100.00;102382.31;5136179;27;19919;-70
2023/03/17 00:34:10;;;;;;;;;;;;;;;-3.24;100.00;102384.88;5135924;27;19915;-70
2023/03/17 00:36:36;;;;;;;;;;;;;;;-3.23;100.00;102380.50;5136146;27;19915;-69
2023/03/17 00:39:02;;;;;;;;;;;;;;;-3.23;100.00;102388.34;5136018;27;19919;-70
2023/03/17 00:41:28;;;;;;;;;;;;;;;-3.24;100.00;102389.22;5135821;27;20408;-69
2023/03/17 00:43:54;;;;;;;;;;;;;;;-3.26;100.00;102398.81;5135824;27;19915;-69
2023/03/17 00:46:24;;;;;;;;;;;;;;;-3.26;100.00;102393.63;5135813;27;19912;-70
2023/03/17 00:48:49;;;;;;;;;;;;;;;-3.29;100.00;102388.47;5135652;27;19918;-71
2023/03/17 00:51:41;;;;;;;;;;;;;;;-3.29;100.00;102393.69;5135712;27;19911;-70
2023/03/17 00:54:08;;;;;;;;;;;;;;;-3.32;100.00;102398.97;5100364;27;19954;-70
2023/03/17 00:56:33;;;;;;;;;;;;;;;-3.33;100.00;102402.47;5135641;27;19956;-69
2023/03/17 00:58:58;;;;;;;;;;;;;;;-3.34;100.00;102405.97;5135617;27;19915;-69
2023/03/17 01:01:24;;;;;;;;;;;;;;;-3.33;100.00;102407.69;5135190;27;20378;-69
2023/03/17 01:03:50;;;;;;;;;;;;;;;-3.32;100.00;102409.41;5117236;27;19912;-69
2023/03/17 01:06:15;;;;;;;;;;;;;;;-3.33;100.00;102402.47;5135877;27;19918;-69
2023/03/17 01:08:41;;;;;;;;;;;;;;;-3.34;100.00;102403.38;5136074;27;20354;-70
2023/03/17 01:11:13;;;;;;;;;;;;;;;-3.36;100.00;102405.16;5137431;27;19915;-69
2023/03/17 01:13:39;;;;;;;;;;;;;;;-3.38;100.00;102399.13;5157602;27;19904;-71
2023/03/17 01:16:08;;;;;;;;;;;;;;;-3.39;100.00;102406.06;5144473;27;20312;-69
2023/03/17 01:18:34;;;;;;;;;;;;;;;-3.40;100.00;102406.09;5136072;27;19911;-70
2023/03/17 01:20:59;;;;;;;;;;;;;;;-3.43;100.00;102399.22;5117246;27;19936;-70
2023/03/17 01:23:24;;;;;;;;;;;;;;;-3.44;100.00;102405.31;5135233;27;20377;-70
2023/03/17 01:25:50;;;;;;;;;;;;;;;-3.43;100.00;102412.25;5135036;27;19915;-69
2023/03/17 01:28:16;;;;;;;;;;;;;;;-3.45;100.00;102420.09;5134887;27;20393;-69
2023/03/17 01:30:42;;;;;;;;;;;;;;;-3.46;100.00;102418.38;5134825;27;19922;-68
2023/03/17 01:33:09;;;;;;;;;;;;;;;-3.49;100.00;102418.41;5134968;27;20010;-70
2023/03/17 01:35:35;;;;;;;;;;;;;;;-3.50;100.00;102421.06;5134850;27;20455;-70
2023/03/17 01:38:01;;;;;;;;;;;;;;;-3.50;100.00;102427.13;5134779;27;19958;-70
2023/03/17 01:40:32;;;;;;;;;;;;;;;-3.50;100.00;102421.06;5134864;27;19956;-69
2023/03/17 01:43:17;;;;;;;;;;;;;;;-3.52;100.00;102421.09;5134655;27;19911;-69
2023/03/17 01:46:01;;;;;;;;;;;;;;;-3.54;100.00;102415.06;5134017;27;19912;-70
2023/03/17 01:48:27;;;;;;;;;;;;;;;-3.55;100.00;102415.94;5134461;27;20385;-69
2023/03/17 01:50:53;;;;;;;;;;;;;;;-3.54;100.00;102425.47;5134659;27;19912;-68
2023/03/17 01:53:20;;;;;;;;;;;;;;;-3.56;100.00;102419.44;5134418;27;20025;-70
2023/03/17 01:55:46;;;;;;;;;;;;;;;-3.54;100.00;102424.63;5116367;27;19957;-70
2023/03/17 01:58:13;;;;;;;;;;;;;;;-3.54;100.00;102428.06;5134698;27;19938;-69
2023/03/17 02:00:39;;;;;;;;;;;;;;;-3.55;100.00;102428.09;5134681;27;19912;-68
2023/03/17 02:03:04;;;;;;;;;;;;;;;-3.57;100.00;102433.34;5134557;27;19918;-70
2023/03/17 02:05:31;;;;;;;;;;;;;;;-3.58;100.00;102434.25;5134369;27;19922;-70
2023/03/17 02:07:57;;;;;;;;;;;;;;;-3.59;100.00;102444.69;5134596;27;19918;-71
2023/03/17 02:10:23;;;;;;;;;;;;;;;-3.61;100.00;102446.47;5116372;27;19915;-69
2023/03/17 02:12:54;;;;;;;;;;;;;;;-3.62;100.00;102436.94;5134487;27;20346;-69
2023/03/17 02:15:20;;;;;;;;;;;;;;;-3.65;100.00;102443.06;5134486;27;19965;-69
2023/03/17 02:17:46;;;;;;;;;;;;;;;-3.67;100.00;102450.06;5134277;27;20348;-69
2023/03/17 02:20:11;;;;;;;;;;;;;;;-3.68;100.00;102450.09;5134725;27;19911;-69
2023/03/17 02:22:37;;;;;;;;;;;;;;;-3.69;100.00;102451.84;5115744;27;20328;-69
2023/03/17 02:25:03;;;;;;;;;;;;;;;-3.69;100.00;102451.84;5133197;27;19912;-70
2023/03/17 02:27:32;;;;;;;;;;;;;;;-3.71;100.00;102456.22;5134050;27;19998;-71
2023/03/17 02:29:58;;;;;;;;;;;;;;;-3.73;100.00;102464.97;5134168;27;19950;-69
2023/03/17 02:32:24;;;;;;;;;;;;;;;-3.77;100.00;102464.13;5133988;27;19915;-69
2023/03/17 02:34:49;;;;;;;;;;;;;;;-3.79;100.00;102460.69;5134421;27;19918;-71
2023/03/17 02:37:15;;;;;;;;;;;;;;;-3.79;100.00;102469.38;5115114;27;19919;-69
2023/03/17 02:39:41;;;;;;;;;;;;;;;-3.80;100.00;102474.59;5133727;27;19973;-71
2023/03/17 02:42:06;;;;;;;;;;;;;;;-3.85;100.00;102472.09;5134135;27;20343;-70
2023/03/17 02:44:32;;;;;;;;;;;;;;;-3.88;100.00;102477.34;5133751;27;19984;-70
2023/03/17 02:46:57;;;;;;;;;;;;;;;-3.90;100.00;102473.06;5133595;27;19912;-70
2023/03/17 02:49:23;;;;;;;;;;;;;;;-3.90;100.00;102463.50;5134404;27;20334;-70
2023/03/17 02:51:49;;;;;;;;;;;;;;;-3.89;100.00;102469.56;5115297;27;20316;-70
2023/03/17 02:54:14;;;;;;;;;;;;;;;-3.90;100.00;102473.94;5133653;27;19927;-69
2023/03/17 02:56:40;;;;;;;;;;;;;;;-3.90;100.00;102479.13;5133613;27;19915;-69
2023/03/17 02:59:06;;;;;;;;;;;;;;;-3.90;100.00;102479.13;5133727;27;20355;-69
2023/03/17 03:01:32;;;;;;;;;;;;;;;-3.90;100.00;102480.88;5114998;28;19956;-69
2023/03/17 03:03:57;;;;;;;;;;;;;;;-3.92;100.00;102486.13;5133261;28;19917;-70
2023/03/17 03:06:23;;;;;;;;;;;;;;;-4.00;100.00;102477.59;5133637;28;19911;-71
2023/03/17 03:08:49;;;;;;;;;;;;;;;-3.94;100.00;102493.09;5133669;28;19926;-69
2023/03/17 03:11:14;;;;;;;;;;;;;;;-3.96;100.00;102499.22;5133534;28;19934;-70
2023/03/17 03:13:40;;;;;;;;;;;;;;;-3.96;100.00;102496.63;5133314;28;19940;-69
2023/03/17 03:16:05;;;;;;;;;;;;;;;-3.96;100.00;102500.06;5114922;28;20008;-69
2023/03/17 03:18:31;;;;;;;;;;;;;;;-3.94;100.00;102507.84;5134533;28;19911;-69
2023/03/17 03:20:57;;;;;;;;;;;;;;;-3.95;100.00;102506.13;5115690;28;19957;-69
2023/03/17 03:23:23;;;;;;;;;;;;;;;-3.94;100.00;102505.25;5133446;28;19915;-70
2023/03/17 03:25:48;;;;;;;;;;;;;;;-3.94;100.00;102507.84;5133339;28;19929;-69
2023/03/17 03:28:13;;;;;;;;;;;;;;;-3.93;100.00;102504.38;5137041;28;19912;-70
2023/03/17 03:30:41;;;;;;;;;;;;;;;-3.93;100.00;102512.16;5135843;28;19915;-72
2023/03/17 03:33:06;;;;;;;;;;;;;;;-3.94;100.00;102513.06;5132622;28;19922;-71
2023/03/17 03:35:33;;;;;;;;;;;;;;;-3.93;100.00;102514.78;5134102;27;19911;-72
2023/03/17 03:37:58;;;;;;;;;;;;;;;-3.93;100.00;102519.97;5137197;27;20359;-71
2023/03/17 03:40:24;;;;;;;;;;;;;;;-3.94;100.00;102518.25;5137371;27;19911;-71
2023/03/17 03:42:49;;;;;;;;;;;;;;;-3.95;100.00;102522.63;5137579;27;19911;-69
2023/03/17 03:45:27;;;;;;;;;;;;;;;-3.96;100.00;102520.03;5138760;27;19911;-73
2023/03/17 03:47:55;;;;;;;;;;;;;;;-3.97;100.00;102529.59;5140042;27;19911;-70
2023/03/17 03:50:24;;;;;;;;;;;;;;;-3.97;100.00;102532.19;5120145;27;20362;-73
2023/03/17 03:52:50;;;;;;;;;;;;;;;-3.99;100.00;102533.97;5136922;27;19920;-71
2023/03/17 03:55:15;;;;;;;;;;;;;;;-3.97;100.00;102529.59;5137202;27;19985;-69
2023/03/17 03:57:43;;;;;;;;;;;;;;;-3.95;100.00;102526.97;5137229;27;19919;-68
2023/03/17 04:00:09;;;;;;;;;;;;;;;-3.97;100.00;102531.34;5117624;27;19911;-69
2023/03/17 04:02:35;;;;;;;;;;;;;;;-3.99;100.00;102535.72;5136802;27;20419;-71
2023/03/17 04:05:00;;;;;;;;;;;;;;;-3.98;100.00;102538.28;5137300;27;19911;-73
2023/03/17 04:07:26;;;;;;;;;;;;;;;-3.97;100.00;102544.34;5118523;27;19957;-69
2023/03/17 04:09:51;;;;;;;;;;;;;;;-4.00;100.00;102545.25;5136647;27;19965;-69
2023/03/17 04:12:16;;;;;;;;;;;;;;;-4.03;100.00;102553.13;5136616;27;19915;-74
2023/03/17 04:14:43;;;;;;;;;;;;;;;-4.02;100.00;102553.97;5136294;27;19937;-69
2023/03/17 04:17:09;;;;;;;;;;;;;;;-4.02;100.00;102554.84;5136291;27;19915;-70
2023/03/17 04:19:35;;;;;;;;;;;;;;;-4.01;100.00;102553.94;5136426;27;19911;-71
2023/03/17 04:22:00;;;;;;;;;;;;;;;-4.01;100.00;102566.09;5117945;27;19953;-72
2023/03/17 04:24:26;;;;;;;;;;;;;;;-4.00;100.00;102560.03;5136432;27;19950;-71
2023/03/17 04:26:53;;;;;;;;;;;;;;;-3.96;100.00;102566.88;5121476;27;19918;-67
2023/03/17 04:29:19;;;;;;;;;;;;;;;-3.95;100.00;102560.78;5116613;27;20252;-70
2023/03/17 04:31:47;;;;;;;;;;;;;;;-3.93;100.00;102557.28;5138737;27;19994;-68
2023/03/17 04:34:15;;;;;;;;;;;;;;;-3.94;100.00;102560.78;5138473;27;19916;-68
2023/03/17 04:36:41;;;;;;;;;;;;;;;-3.93;100.00;102565.09;5138273;27;20017;-70
2023/03/17 04:39:06;;;;;;;;;;;;;;;-3.89;100.00;102563.28;5136568;27;19922;-70
2023/03/17 04:41:32;;;;;;;;;;;;;;;-3.87;100.00;102566.72;5136047;27;19911;-73
2023/03/17 04:43:57;;;;;;;;;;;;;;;-3.88;100.00;102572.81;5136096;27;19918;-72
2023/03/17 04:46:22;;;;;;;;;;;;;;;-3.86;100.00;102574.50;5136888;27;19915;-70
2023/03/17 04:48:48;;;;;;;;;;;;;;;-3.82;100.00;102580.50;5137129;27;20399;-72
2023/03/17 04:51:13;;;;;;;;;;;;;;;-3.81;100.00;102577.03;5136815;27;20370;-69
2023/03/17 04:53:38;;;;;;;;;;;;;;;-3.78;100.00;102587.38;5136035;27;19912;-69
2023/03/17 04:56:04;;;;;;;;;;;;;;;-3.77;100.00;102587.34;5135299;27;19911;-70
2023/03/17 04:58:29;;;;;;;;;;;;;;;-3.74;100.00;102594.28;5135535;27;20315;-68
2023/03/17 05:00:55;;;;;;;;;;;;;;;-3.72;100.00;102587.28;5135376;27;19919;-69
2023/03/17 05:03:20;;;;;;;;;;;;;;;-3.67;100.00;102587.22;5135753;27;19915;-68
2023/03/17 05:05:46;;;;;;;;;;;;;;;-3.63;100.00;102589.72;5117049;27;19955;-70
2023/03/17 05:08:11;;;;;;;;;;;;;;;-3.57;100.00;102596.56;5134970;27;19912;-68
2023/03/17 05:10:37;;;;;;;;;;;;;;;-3.52;100.00;102600.78;5136406;27;20270;-69
2023/03/17 05:13:02;;;;;;;;;;;;;;;-3.48;100.00;102602.44;5136532;27;19947;-68
2023/03/17 05:15:28;;;;;;;;;;;;;;;-3.44;100.00;102605.88;5135696;27;19912;-70
2023/03/17 05:17:53;;;;;;;;;;;;;;;-3.46;100.00;102605.91;5134071;27;19919;-71
2023/03/17 05:20:19;;;;;;;;;;;;;;;-3.42;100.00;102611.94;5133868;27;19923;-69
2023/03/17 05:22:45;;;;;;;;;;;;;;;-3.35;100.00;102615.28;5134920;27;19970;-70
2023/03/17 05:25:10;;;;;;;;;;;;;;;-3.27;100.00;102626.41;5135117;27;20011;-71
2023/03/17 05:27:36;;;;;;;;;;;;;;;-3.21;100.00;102628.88;5134537;27;19950;-71
2023/03/17 05:30:02;;;;;;;;;;;;;;;-3.15;100.00;102629.66;5134337;27;19911;-70
2023/03/17 05:32:28;;;;;;;;;;;;;;;-3.07;100.00;102626.88;5134970;27;19915;-70
2023/03/17 05:34:53;;;;;;;;;;;;;;;-2.99;100.00;102627.59;5134820;27;19919;-71
2023/03/17 05:37:19;;;;;;;;;;;;;;;-2.94;100.00;102623.13;5134732;27;19946;-71
2023/03/17 05:39:44;;;;;;;;;;;;;;;-2.87;100.00;102627.38;5134665;27;19911;-70
2023/03/17 05:42:10;;;;;;;;;;;;;;;-2.78;100.00;102630.66;5134230;27;19974;-71
2023/03/17 05:44:35;;;;;;;;;;;;;;;-2.69;100.00;102633.06;5135888;27;19930;-71
2023/03/17 05:47:00;;;;;;;;;;;;;;;-2.63;100.00;102635.53;5116010;27;19911;-69
2023/03/17 05:49:26;;;;;;;;;;;;;;;-2.57;100.00;102646.72;5134071;27;19912;-70
2023/03/17 05:51:51;;;;;;;;;;;;;;;-2.53;100.00;102643.16;5133907;27;19912;-70
2023/03/17 05:54:17;;;;;;;;;;;;;;;-2.46;100.00;102640.41;5127562;27;19918;-70
2023/03/17 05:56:42;;;;;;;;;;;;;;;-2.39;100.00;102642.84;5134553;27;19921;-70
2023/03/17 05:59:08;;;;;;;;;;;;;;;-2.31;100.00;102640.09;5134713;27;19964;-70
2023/03/17 06:01:34;;;;;;;;;;;;;;;-2.22;100.00;102647.69;5133878;27;20351;-70
2023/03/17 06:04:00;;;;;;;;;;;;;;;-2.16;100.00;102649.31;5134164;27;19959;-69
2023/03/17 06:06:26;;;;;;;;;;;;;;;-2.10;100.00;102657.00;5115694;27;20413;-71
2023/03/17 06:08:52;;;;;;;;;;;;;;;-2.06;100.00;102649.03;5134500;27;20001;-69
2023/03/17 06:11:19;;;;;;;;;;;;;;;-1.98;100.00;102656.72;5134213;27;19964;-70
2023/03/17 06:13:45;;;;;;;;;;;;;;;-1.95;100.00;102654.91;5133763;27;19916;-70
2023/03/17 06:16:11;;;;;;;;;;;;;;;-1.88;99.94;102653.00;5134001;27;20267;-70
2023/03/17 06:18:36;;;;;;;;;;;;;;;-1.80;99.07;102656.25;5133998;27;20002;-71
2023/03/17 06:21:01;;;;;;;;;;;;;;;-1.73;98.96;102652.63;5134044;27;19911;-70
2023/03/17 06:23:26;;;;;;;;;;;;;;;-1.66;97.66;102653.34;5133683;27;20358;-70
2023/03/17 06:25:52;;;;;;;;;;;;;;;-1.62;96.46;102650.59;5133581;27;19915;-70
2023/03/17 06:28:18;;;;;;;;;;;;;;;-1.54;96.14;102657.38;5133669;27;19912;-71
2023/03/17 06:30:43;;;;;;;;;;;;;;;-1.48;96.06;102657.22;5133702;27;19967;-70
2023/03/17 06:33:09;;;;;;;;;;;;;;;-1.38;95.74;102656.09;5133948;27;20024;-69
2023/03/17 06:35:35;;;;;;;;;;;;;;;-1.29;95.48;102653.25;5133426;27;19919;-71
2023/03/17 06:38:01;;;;;;;;;;;;;;;-1.24;94.40;102653.97;5133434;27;19922;-71
2023/03/17 06:40:29;;;;;;;;;;;;;;;-1.17;93.20;102657.28;5115152;27;20296;-69
2023/03/17 06:42:57;;;;;;;;;;;;;;;-1.09;92.29;102655.31;5133397;27;19936;-70
2023/03/17 06:45:22;;;;;;;;;;;;;;;-1.01;90.92;102659.44;5133487;27;19911;-69
2023/03/17 06:47:48;;;;;;;;;;;;;;;-0.97;89.87;102662.81;5133824;27;20351;-70
2023/03/17 06:50:13;;;;;;;;;;;;;;;-0.94;86.83;102670.59;5134508;27;19964;-67
2023/03/17 06:52:39;;;;;;;;;;;;;;;-0.88;86.70;102664.31;5133584;27;19937;-65
2023/03/17 06:55:06;;;;;;;;;;;;;;;-0.83;86.67;102670.31;5135266;27;20406;-65
2023/03/17 06:57:32;;;;;;;;;;;;;;;-0.78;84.59;102671.88;5128766;27;19924;-63
2023/03/17 06:59:57;;;;;;;;;;;;;;;-0.73;80.77;102679.59;5116393;28;19915;-66
2023/03/17 07:02:23;;;;;;;;;;;;;;;-0.68;81.98;102677.72;5098263;28;20359;-68
2023/03/17 07:04:49;;;;;;;;;;;;;;;-0.61;78.28;102679.25;5118009;28;20322;-65
2023/03/17 07:07:15;;;;;;;;;;;;;;;-0.59;75.53;102679.19;5122329;28;19912;-66
2023/03/17 07:09:40;;;;;;;;;;;;;;;-0.54;76.96;102686.03;5113817;28;19961;-64
2023/03/17 07:12:06;;;;;;;;;;;;;;;-0.48;80.03;102691.09;5116575;28;20271;-67
2023/03/17 07:14:34;;;;;;;;;;;;;;;-0.44;75.35;102692.72;5099616;28;19916;-65
2023/03/17 07:17:00;;;;;;;;;;;;;;;-0.39;73.28;102696.03;5117305;28;19936;-69
2023/03/17 07:19:26;;;;;;;;;;;;;;;-0.31;73.04;102695.81;5117537;28;20370;-67
2023/03/17 07:21:51;;;;;;;;;;;;;;;-0.33;70.62;102701.09;5117004;28;19915;-65
2023/03/17 07:24:17;;;;;;;;;;;;;;;-0.24;70.85;102699.13;5098482;28;19927;-66
2023/03/17 07:26:42;;;;;;;;;;;;;;;-0.19;72.62;102700.69;5116708;28;19919;-66
2023/03/17 07:29:08;;;;;;;;;;;;;;;-0.11;74.03;102700.47;5117652;27;19912;-65
2023/03/17 07:31:37;;;;;;;;;;;;;;;-0.07;71.37;102702.06;5116869;27;19933;-66
2023/03/17 07:34:03;;;;;;;;;;;;;;;0.03;69.63;102702.66;5120195;27;19928;-64
2023/03/17 07:36:28;;;;;;;;;;;;;;;0.06;70.31;102708.66;5133044;27;19911;-65
2023/03/17 07:38:54;;;;;;;;;;;;;;;0.10;71.37;102705.03;5116171;28;19922;-64
2023/03/17 07:41:20;;;;;;;;;;;;;;;0.11;67.70;102716.38;5115104;28;19957;-65
2023/03/17 07:43:46;;;;;;;;;;;;;;;0.14;67.30;102717.13;5116482;28;19918;-66
2023/03/17 07:46:12;;;;;;;;;;;;;;;0.20;66.92;102722.19;5122266;27;20021;-64
2023/03/17 07:48:40;;;;;;;;;;;;;;;0.29;68.85;102723.69;5137496;27;19912;-65
2023/03/17 07:51:08;;;;;;;;;;;;;;;0.37;68.20;102720.81;5117945;28;19911;-66
2023/03/17 07:53:36;;;;;;;;;;;;;;;0.43;67.23;102729.31;5117151;28;19960;-66
2023/03/17 07:56:06;;;;;;;;;;;;;;;0.49;68.39;102734.34;5117201;28;19911;-65
2023/03/17 07:58:31;;;;;;;;;;;;;;;0.57;68.65;102739.34;5116229;28;20286;-65
2023/03/17 08:00:56;;;;;;;;;;;;;;;0.64;65.22;102743.50;5098044;28;19911;-64
2023/03/17 08:03:22;;;;;;;;;;;;;;;0.71;64.42;102745.00;5116247;28;19911;-65
2023/03/17 08:05:52;;;;;;;;;;;;;;;0.76;65.36;102739.59;5116311;28;19918;-66
2023/03/17 08:08:20;;;;;;;;;;;;;;;0.83;64.74;102743.72;5115960;28;19980;-65
2023/03/17 08:10:45;;;;;;;;;;;;;;;0.92;63.76;102743.44;5116117;28;19919;-65
2023/03/17 08:13:11;;;;;;;;;;;;;;;0.99;60.26;102739.69;5115933;28;19920;-67
2023/03/17 08:15:36;;;;;;;;;;;;;;;1.08;61.51;102743.75;5116490;28;19922;-65
2023/03/17 08:18:02;;;;;;;;;;;;;;;1.15;60.35;102747.88;5116381;28;20305;-65
2023/03/17 08:20:28;;;;;;;;;;;;;;;1.20;57.02;102748.59;5116055;28;20391;-66
2023/03/17 08:22:53;;;;;;;;;;;;;;;1.23;59.37;102748.47;5115853;28;19959;-66
2023/03/17 08:25:19;;;;;;;;;;;;;;;1.24;56.90;102744.94;5115523;28;20034;-67
2023/03/17 08:27:45;;;;;;;;;;;;;;;1.23;55.56;102748.47;5097848;28;19912;-67
2023/03/17 08:30:11;;;;;;;;;;;;;;;1.31;54.85;102742.94;5116168;28;19935;-65
2023/03/17 08:32:37;;;;;;;;;;;;;;;1.39;56.69;102739.13;5115783;28;19922;-65
2023/03/17 08:35:05;;;;;;;;;;;;;;;1.47;55.59;102741.50;5115684;28;19916;-64
2023/03/17 08:37:31;;;;;;;;;;;;;;;1.55;55.06;102744.69;5116351;28;19912;-66
2023/03/17 08:39:56;;;;;;;;;;;;;;;1.62;54.38;102742.69;5115348;28;20271;-65
2023/03/17 08:42:22;;;;;;;;;;;;;;;1.65;52.17;102748.69;5115413;28;19912;-67
2023/03/17 08:44:50;;;;;;;;;;;;;;;1.67;51.96;102744.22;5097204;28;19912;-67
2023/03/17 08:47:15;;;;;;;;;;;;;;;1.73;51.75;102748.38;5115001;28;19916;-64
2023/03/17 08:49:41;;;;;;;;;;;;;;;1.74;48.19;102750.13;5115622;28;19922;-64
2023/03/17 08:52:06;;;;;;;;;;;;;;;1.78;50.54;102751.72;5114909;28;20251;-64
2023/03/17 08:54:33;;;;;;;;;;;;;;;1.81;49.52;102747.22;5114718;28;20362;-64
2023/03/17 08:57:00;;;;;;;;;;;;;;;1.88;49.01;102754.84;5115174;28;20367;-64
2023/03/17 08:59:25;;;;;;;;;;;;;;;1.98;50.37;102751.81;5114945;28;20377;-63
2023/03/17 09:01:51;;;;;;;;;;;;;;;2.06;50.42;102754.16;5114454;28;19912;-63
2023/03/17 09:04:16;;;;;;;;;;;;;;;2.15;52.27;102748.53;5114967;28;19915;-65
2023/03/17 09:06:41;;;;;;;;;;;;;;;2.28;53.27;102744.50;5114615;28;20368;-64
2023/03/17 09:09:07;;;;;;;;;;;;;;;2.36;51.96;102746.84;5114841;28;20389;-66
2023/03/17 09:11:32;;;;;;;;;;;;;;;2.42;52.60;102755.34;5114730;28;19919;-65
2023/03/17 09:13:58;;;;;;;;;;;;;;;2.41;49.54;102752.78;5114680;28;19934;-63
2023/03/17 09:16:24;;;;;;;;;;;;;;;2.44;49.97;102752.66;5115245;28;19951;-65
2023/03/17 09:18:49;;;;;;;;;;;;;;;2.50;50.79;102755.03;5115375;28;20370;-65
2023/03/17 09:21:15;;;;;;;;;;;;;;;2.55;49.96;102753.06;5114526;28;19951;-66
2023/03/17 09:23:40;;;;;;;;;;;;;;;2.63;51.37;102745.72;5114522;28;19957;-66
2023/03/17 09:26:06;;;;;;;;;;;;;;;2.67;49.66;102749.09;5114424;28;20274;-64
2023/03/17 09:28:31;;;;;;;;;;;;;;;2.66;51.49;102747.38;5114453;28;19919;-67
2023/03/17 09:31:01;;;;;;;;;;;;;;;2.70;51.83;102747.19;5114428;28;19938;-67
2023/03/17 09:33:27;;;;;;;;;;;;;;;2.71;50.52;102751.53;5113439;28;20379;-68
2023/03/17 09:35:53;;;;;;;;;;;;;;;2.67;49.29;102752.56;5113769;28;19941;-69
2023/03/17 09:38:19;;;;;;;;;;;;;;;2.69;50.08;102750.72;5113746;28;19953;-68
2023/03/17 09:40:44;;;;;;;;;;;;;;;2.68;51.10;102751.66;5114229;28;19938;-65
2023/03/17 09:43:27;;;;;;;;;;;;;;;2.72;52.36;102752.38;5113967;28;19957;-67
2023/03/17 09:45:54;;;;;;;;;;;;;;;2.80;51.77;102753.75;5113801;28;19959;-67
2023/03/17 09:48:33;;;;;;;;;;;;;;;2.88;51.19;102752.59;5113565;28;19912;-69
2023/03/17 09:51:12;;;;;;;;;;;;;;;2.92;52.10;102755.03;5114083;28;19938;-66
2023/03/17 09:53:53;;;;;;;;;;;;;;;2.98;50.82;102759.19;5114095;28;19912;-70
2023/03/17 09:56:18;;;;;;;;;;;;;;;3.00;53.13;102757.34;5114096;28;20313;-66
2023/03/17 09:58:58;;;;;;;;;;;;;;;3.06;53.21;102763.19;5113621;28;20006;-75
2023/03/17 10:01:24;;;;;;;;;;;;;;;3.17;53.71;102765.34;5113496;28;19912;-69
2023/03/17 10:03:50;;;;;;;;;;;;;;;3.23;54.07;102762.50;5113648;28;19915;-69
2023/03/17 10:06:37;;;;;;;;;;;;;;;3.25;53.55;102763.28;5113666;28;19955;-69
2023/03/17 10:09:17;;;;;;;;;;;;;;;3.15;51.56;102759.31;5113360;28;19911;-68
2023/03/17 10:11:45;;;;;;;;;;;;;;;3.15;54.50;102761.09;5113405;28;20258;-72
2023/03/17 10:14:14;;;;;;;;;;;;;;;3.20;54.10;102765.25;5113360;28;19922;-70
2023/03/17 10:16:41;;;;;;;;;;;;;;;3.32;54.56;102754.19;5113771;28;20321;-69
2023/03/17 10:19:16;;;;;;;;;;;;;;;3.48;53.85;102756.16;5113435;28;19911;-69
2023/03/17 10:21:51;;;;;;;;;;;;;;;3.63;54.60;102763.34;5113017;28;20023;-70
2023/03/17 10:24:17;;;;;;;;;;;;;;;3.65;50.95;102765.00;5113300;28;20172;-66
2023/03/17 10:26:44;;;;;;;;;;;;;;;3.64;52.63;102754.53;5113386;28;20347;-66
2023/03/17 10:29:15;;;;;;;;;;;;;;;3.53;51.45;102755.00;5113298;28;19918;-65
2023/03/17 10:31:40;;;;;;;;;;;;;;;3.46;52.57;102760.59;5112971;28;19922;-64
2023/03/17 10:34:24;;;;;;;;;;;;;;;3.51;50.70;102759.50;5112782;28;20006;-66
2023/03/17 10:36:53;;;;;;;;;;;;;;;3.47;50.09;102764.94;5113195;28;19934;-65
2023/03/17 10:39:20;;;;;;;;;;;;;;;3.39;50.52;102760.88;5112971;28;19954;-64
2023/03/17 10:42:06;;;;;;;;;;;;;;;3.37;49.73;102765.34;5113330;28;20457;-65
2023/03/17 10:44:31;;;;;;;;;;;;;;;3.52;52.29;102757.72;5112366;28;19916;-65
2023/03/17 10:46:56;;;;;;;;;;;;;;;3.64;53.06;102759.78;5118954;27;19994;-63
2023/03/17 10:49:23;;;;;;;;;;;;;;;3.71;51.63;102763.84;5113105;28;19927;-68
2023/03/17 10:51:51;;;;;;;;;;;;;;;3.68;50.94;102770.13;5095078;28;19919;-66
2023/03/17 10:54:17;;;;;;;;;;;;;;;3.65;52.29;102766.78;5112856;28;20373;-66
2023/03/17 10:56:45;;;;;;;;;;;;;;;3.67;52.31;102770.19;5112579;28;20354;-66
2023/03/17 10:59:17;;;;;;;;;;;;;;;3.71;50.59;102766.50;5112971;28;19939;-67
2023/03/17 11:01:46;;;;;;;;;;;;;;;3.82;52.09;102766.03;5112246;28;20383;-66
2023/03/17 11:04:19;;;;;;;;;;;;;;;3.78;51.85;102761.81;5112840;28;19924;-67
2023/03/17 11:06:49;;;;;;;;;;;;;;;3.77;51.06;102776.78;5130090;28;19911;-66
2023/03/17 11:09:17;;;;;;;;;;;;;;;3.84;51.18;102775.56;5122572;28;20036;-65
2023/03/17 11:11:43;;;;;;;;;;;;;;;3.84;50.39;102770.28;5112557;28;19957;-67
2023/03/17 11:14:13;;;;;;;;;;;;;;;3.75;49.88;102760.16;5112522;28;19912;-65
2023/03/17 11:16:52;;;;;;;;;;;;;;;3.73;52.86;102764.63;5122295;28;19911;-65
2023/03/17 11:19:19;;;;;;;;;;;;;;;3.75;49.65;102768.06;5133178;28;19941;-66
2023/03/17 11:21:53;;;;;;;;;;;;;;;3.66;49.17;102765.84;5114399;28;19911;-67
2023/03/17 11:24:24;;;;;;;;;;;;;;;3.68;51.38;102766.63;5133648;28;19911;-67
2023/03/17 11:26:49;;;;;;;;;;;;;;;3.72;50.00;102763.78;5124089;28;19912;-66
2023/03/17 11:29:33;;;;;;;;;;;;;;;3.81;49.87;102766.94;5131901;28;20021;-67
2023/03/17 11:32:04;;;;;;;;;;;;;;;3.90;49.54;102764.72;5132936;28;19922;-68
2023/03/17 11:34:43;;;;;;;;;;;;;;;3.99;51.28;102756.38;5133012;28;19916;-68
2023/03/17 11:37:27;;;;;;;;;;;;;;;4.13;50.61;102757.53;5114564;28;19912;-68
2023/03/17 11:40:06;;;;;;;;;;;;;;;4.21;50.99;102758.03;5134744;28;19911;-68
2023/03/17 11:42:50;;;;;;;;;;;;;;;4.28;49.48;102751.53;5134019;28;20308;-68
2023/03/17 11:45:36;;;;;;;;;;;;;;;4.22;48.24;102751.81;5121517;28;20279;-66
2023/03/17 11:48:09;;;;;;;;;;;;;;;4.21;48.78;102742.19;5112082;28;20009;-68
2023/03/17 11:50:35;;;;;;;;;;;;;;;4.20;47.24;102753.69;5094083;28;20022;-67
2023/03/17 11:53:12;;;;;;;;;;;;;;;4.19;48.11;102751.97;5112204;28;20002;-70
2023/03/17 11:55:47;;;;;;;;;;;;;;;4.20;48.96;102753.69;5125053;28;20419;-68
2023/03/17 11:58:20;;;;;;;;;;;;;;;4.21;47.61;102750.97;5135419;27;19911;-67
2023/03/17 12:00:51;;;;;;;;;;;;;;;4.14;47.36;102748.69;5136754;27;19911;-67
2023/03/17 12:03:21;;;;;;;;;;;;;;;4.07;46.79;102752.56;5136177;27;19937;-68
2023/03/17 12:05:49;;;;;;;;;;;;;;;4.15;47.45;102745.13;5136294;27;20259;-67
2023/03/17 12:08:17;;;;;;;;;;;;;;;4.21;48.46;102747.47;5117844;27;19964;-69
2023/03/17 12:10:48;;;;;;;;;;;;;;;4.22;46.77;102752.69;5136606;27;19911;-68
2023/03/17 12:13:19;;;;;;;;;;;;;;;4.15;46.03;102747.78;5136431;27;20374;-67
2023/03/17 12:16:04;;;;;;;;;;;;;;;4.17;46.73;102735.38;5136200;27;19919;-66
2023/03/17 12:18:33;;;;;;;;;;;;;;;4.20;47.93;102733.44;5136090;27;20343;-69
2023/03/17 12:21:04;;;;;;;;;;;;;;;4.23;46.92;102730.66;5112987;28;19916;-67
2023/03/17 12:23:48;;;;;;;;;;;;;;;4.29;48.24;102721.56;5115532;28;19912;-67
2023/03/17 12:26:17;;;;;;;;;;;;;;;4.27;46.24;102737.47;5115533;28;19919;-70
2023/03/17 12:28:49;;;;;;;;;;;;;;;4.28;46.07;102735.69;5097029;28;19912;-69
2023/03/17 12:31:20;;;;;;;;;;;;;;;4.26;47.59;102734.91;5115010;28;20309;-67
2023/03/17 12:33:52;;;;;;;;;;;;;;;4.30;47.62;102734.69;5115377;28;19915;-68
2023/03/17 12:36:18;;;;;;;;;;;;;;;4.37;46.05;102747.63;5115390;28;19965;-68
2023/03/17 12:39:04;;;;;;;;;;;;;;;4.35;45.83;102734.50;5115314;28;19916;-68